This is the latest recevied weather packets stored in our database for station/object OH7GGX-14. If no packets are shown the sender has not sent any weather packets the latest 1 day(s).
| Time | Temp. | Humidity | Pressure | Rain* | Wind** | Luminosity | Snow |
|---|---|---|---|---|---|---|---|
| 1777977094 | 6.67° C | 99% | 999.9 hPa | 2.03 mm | 2.68 m/s, 223° | - | - |
| 1777976493 | 7.78° C | 92% | 1000 hPa | 1.52 mm | 1.79 m/s, 180° | - | - |
| 1777975893 | 8.89° C | 83% | 999.7 hPa | 0.51 mm | 4.02 m/s, 213° | - | - |
| 1777975293 | 10.56° C | 76% | 999.1 hPa | 0 mm | 1.79 m/s, 264° | - | - |
| 1777974693 | 10.56° C | 78% | 998.1 hPa | 0 mm | 2.24 m/s, 213° | - | - |
| 1777974093 | 11.11° C | 80% | 998 hPa | 0 mm | 2.68 m/s, 217° | - | - |
| 1777973493 | 11.11° C | 75% | 997.9 hPa | 0 mm | 2.68 m/s, 208° | - | - |
| 1777972893 | 11.67° C | 74% | 997.9 hPa | 0 mm | 3.58 m/s, 187° | - | - |
| 1777972293 | 11.67° C | 79% | 998.3 hPa | 0 mm | 0.45 m/s, 216° | - | - |
| 1777971693 | 11.67° C | 80% | 998.2 hPa | 0 mm | 1.79 m/s, 180° | - | - |
| 1777971093 | 11.11° C | 82% | 998.4 hPa | 0 mm | 3.13 m/s, 182° | - | - |
| 1777970493 | 11.11° C | 84% | 998.7 hPa | 0 mm | 3.58 m/s, 181° | - | - |
| 1777969893 | 10.56° C | 86% | 999 hPa | 0 mm | 0.89 m/s, 184° | - | - |
| 1777969293 | 10.56° C | 86% | 999.2 hPa | 0 mm | 0.89 m/s, 205° | - | - |
| 1777968697 | 10° C | 88% | 999.4 hPa | 0 mm | 1.79 m/s, 219° | - | - |
| 1777968093 | 10° C | 87% | 999.4 hPa | 0 mm | 1.79 m/s, 230° | - | - |
| 1777967493 | 9.44° C | 89% | 999.6 hPa | 0 mm | 0.89 m/s, 189° | - | - |
| 1777966893 | 9.44° C | 91% | 999.6 hPa | 0 mm | 1.79 m/s, 168° | - | - |
| 1777966293 | 9.44° C | 95% | 999.8 hPa | 0 mm | 1.79 m/s, 213° | - | - |
| 1777965693 | 8.89° C | 96% | 1000 hPa | 0 mm | 2.24 m/s, 233° | - | - |
| 1777965093 | 8.89° C | 97% | 1000.2 hPa | 0 mm | 1.34 m/s, 220° | - | - |
* Rain latest hour (hover to see other rain measurements)
** Current wind speed in m/s (hover to see current wind gust speed)